createdAt,value
2023-04-25T00:02:12.480Z,100575.66
2023-04-25T00:04:40.050Z,100565.41
2023-04-25T00:07:07.124Z,100577.28
2023-04-25T00:09:33.931Z,100572.16
2023-04-25T00:12:02.226Z,100578.03
2023-04-25T00:14:28.828Z,100582.03
2023-04-25T00:16:55.772Z,100578.09
2023-04-25T00:19:22.247Z,100579.66
2023-04-25T00:21:48.868Z,100590.72
2023-04-25T00:24:15.434Z,100584.78
2023-04-25T00:26:41.904Z,100577.69
2023-04-25T00:29:08.375Z,100579.66
2023-04-25T00:31:34.931Z,100583.22
2023-04-25T00:34:01.430Z,100582.06
2023-04-25T00:36:28.553Z,100585.97
2023-04-25T00:38:55.877Z,100587.16
2023-04-25T00:41:22.683Z,100581.22
2023-04-25T00:43:51.210Z,100577.31
2023-04-25T00:46:17.895Z,100586.34
2023-04-25T00:48:44.484Z,100584.00
2023-04-25T00:51:16.864Z,100586.00
2023-04-25T00:53:44.012Z,100574.16
2023-04-25T00:56:10.843Z,100581.63
2023-04-25T00:58:38.346Z,100586.00
2023-04-25T01:01:05.140Z,100589.16
2023-04-25T01:03:34.327Z,100583.63
2023-04-25T01:06:01.065Z,100591.94
2023-04-25T01:08:27.649Z,100592.31
2023-04-25T01:10:54.202Z,100596.69
2023-04-25T01:13:21.013Z,100594.69
2023-04-25T01:15:47.489Z,100595.06
2023-04-25T01:18:13.982Z,100590.38
2023-04-25T01:20:42.825Z,100588.41
2023-04-25T01:23:09.934Z,100594.31
2023-04-25T01:25:36.853Z,100591.97
2023-04-25T01:28:03.421Z,100593.19
2023-04-25T01:30:30.209Z,100595.47
2023-04-25T01:32:58.022Z,100591.91
2023-04-25T01:35:25.101Z,100590.72
2023-04-25T01:37:52.344Z,100597.38
2023-04-25T01:40:20.144Z,100597.78
2023-04-25T01:42:46.741Z,100597.44
2023-04-25T01:45:13.551Z,100603.69
2023-04-25T01:47:41.199Z,100598.59
2023-04-25T01:50:09.147Z,100602.59
2023-04-25T01:52:35.677Z,100614.00
2023-04-25T01:55:03.418Z,100614.00
2023-04-25T01:57:29.961Z,100617.56
2023-04-25T02:00:05.004Z,100618.66
2023-04-25T02:02:31.630Z,100623.38
2023-04-25T02:04:58.210Z,100619.81
2023-04-25T02:07:24.837Z,100636.41
2023-04-25T02:09:51.433Z,100634.03
2023-04-25T02:12:17.889Z,100629.28
2023-04-25T02:14:44.413Z,100636.00
2023-04-25T02:17:11.095Z,100633.97
2023-04-25T02:19:37.721Z,100638.78
2023-04-25T02:22:04.205Z,100630.84
2023-04-25T02:24:30.910Z,100637.13
2023-04-25T02:26:57.384Z,100639.50
2023-04-25T02:29:24.057Z,100636.78
2023-04-25T02:31:50.819Z,100637.94
2023-04-25T02:34:17.332Z,100643.06
2023-04-25T02:36:43.892Z,100642.63
2023-04-25T02:39:11.291Z,100638.69
2023-04-25T02:41:37.798Z,100648.16
2023-04-25T02:44:04.298Z,100657.22
2023-04-25T02:46:39.095Z,100646.19
2023-04-25T02:49:07.326Z,100658.41
2023-04-25T02:51:33.904Z,100658.00
2023-04-25T02:54:00.574Z,100650.53
2023-04-25T02:56:27.746Z,100650.91
2023-04-25T02:58:54.890Z,100651.66
2023-04-25T03:01:21.552Z,100655.22
2023-04-25T03:03:48.214Z,100652.78
2023-04-25T03:06:15.720Z,100651.28
2023-04-25T03:08:42.376Z,100646.56
2023-04-25T03:11:08.865Z,100656.78
2023-04-25T03:13:35.528Z,100657.59
2023-04-25T03:16:02.281Z,100655.19
2023-04-25T03:18:28.775Z,100645.78
2023-04-25T03:20:55.278Z,100655.22
2023-04-25T03:23:22.140Z,100658.41
2023-04-25T03:25:48.697Z,100661.16
2023-04-25T03:28:15.575Z,100659.19
2023-04-25T03:30:42.140Z,100658.81
2023-04-25T03:33:08.632Z,100660.78
2023-04-25T03:35:35.178Z,100664.69
2023-04-25T03:38:01.691Z,100675.38
2023-04-25T03:40:28.149Z,100674.13
2023-04-25T03:42:54.682Z,100693.41
2023-04-25T03:45:21.220Z,100694.56
2023-04-25T03:47:49.003Z,100698.81
2023-04-25T03:50:15.557Z,100697.16
2023-04-25T03:52:42.049Z,100693.94
2023-04-25T03:55:08.982Z,100698.91
2023-04-25T03:57:35.453Z,100698.84
2023-04-25T04:00:02.440Z,100705.88
2023-04-25T04:02:29.126Z,100694.00
2023-04-25T04:04:57.756Z,100688.44
2023-04-25T04:07:24.513Z,100692.81
2023-04-25T04:09:51.034Z,100690.38
2023-04-25T04:12:17.512Z,100689.50
2023-04-25T04:14:44.056Z,100685.53
2023-04-25T04:17:10.541Z,100686.28
2023-04-25T04:19:37.161Z,100693.34
2023-04-25T04:22:03.668Z,100699.25
2023-04-25T04:24:30.162Z,100692.94
2023-04-25T04:26:57.618Z,100703.91
2023-04-25T04:29:24.076Z,100698.41
2023-04-25T04:31:52.082Z,100701.16
2023-04-25T04:34:19.364Z,100711.00
2023-04-25T04:36:49.574Z,100709.00
2023-04-25T04:39:16.093Z,100720.75
2023-04-25T04:41:43.789Z,100724.59
2023-04-25T04:44:11.091Z,100719.91
2023-04-25T04:47:14.550Z,100723.03
2023-04-25T04:49:41.066Z,100736.81
2023-04-25T04:52:07.504Z,100740.75
2023-04-25T04:54:36.284Z,100735.66
2023-04-25T04:57:02.770Z,100743.16
2023-04-25T04:59:29.308Z,100751.09
2023-04-25T05:01:55.730Z,100750.75
2023-04-25T05:04:22.283Z,100744.09
2023-04-25T05:06:49.195Z,100746.41
2023-04-25T05:09:16.182Z,100753.13
2023-04-25T05:11:42.631Z,100745.59
2023-04-25T05:14:09.153Z,100752.34
2023-04-25T05:16:36.243Z,100755.19
2023-04-25T05:19:02.783Z,100757.97
2023-04-25T05:21:29.278Z,100761.88
2023-04-25T05:23:55.707Z,100759.19
2023-04-25T05:26:22.122Z,100766.59
2023-04-25T05:28:48.691Z,100776.16
2023-04-25T05:31:15.425Z,100780.59
2023-04-25T05:33:41.913Z,100779.47
2023-04-25T05:36:08.752Z,100771.56
2023-04-25T05:38:35.419Z,100783.91
2023-04-25T05:41:01.991Z,100782.28
2023-04-25T05:43:28.467Z,100792.31
2023-04-25T05:45:55.067Z,100789.94
2023-04-25T05:48:21.631Z,100793.16
2023-04-25T05:50:48.712Z,100782.94
2023-04-25T05:53:15.293Z,100796.03
2023-04-25T05:55:41.728Z,100804.38
2023-04-25T05:58:08.262Z,100808.00
2023-04-25T06:00:34.977Z,100812.34
2023-04-25T06:03:02.307Z,100811.91
2023-04-25T06:05:29.769Z,100812.75
2023-04-25T06:07:56.388Z,100811.16
2023-04-25T06:10:23.712Z,100826.91
2023-04-25T06:12:50.301Z,100824.53
2023-04-25T06:15:27.323Z,100828.09
2023-04-25T06:17:55.774Z,100825.03
2023-04-25T06:20:24.253Z,100832.22
2023-04-25T06:22:51.531Z,100832.72
2023-04-25T06:25:18.218Z,100833.22
2023-04-25T06:27:44.679Z,100831.75
2023-04-25T06:30:13.077Z,100822.22
2023-04-25T06:32:40.167Z,100834.53
2023-04-25T06:35:07.149Z,100833.41
2023-04-25T06:37:33.572Z,100828.31
2023-04-25T06:40:00.151Z,100837.84
2023-04-25T06:42:26.644Z,100837.09
2023-04-25T06:44:53.149Z,100838.34
2023-04-25T06:47:19.728Z,100837.91
2023-04-25T06:49:46.235Z,100843.81
2023-04-25T06:52:12.788Z,100849.38
2023-04-25T06:54:39.336Z,100849.78
2023-04-25T06:57:06.108Z,100854.19
2023-04-25T06:59:33.770Z,100845.41
2023-04-25T07:02:00.621Z,100845.06
2023-04-25T07:04:27.348Z,100849.00
2023-04-25T07:06:54.101Z,100851.41
2023-04-25T07:09:20.607Z,100855.38
2023-04-25T07:11:47.170Z,100847.88
2023-04-25T07:14:13.646Z,100863.69
2023-04-25T07:16:40.109Z,100860.97
2023-04-25T07:19:06.678Z,100857.44
2023-04-25T07:21:33.838Z,100857.81
2023-04-25T07:24:00.450Z,100868.13
2023-04-25T07:26:26.951Z,100870.09
2023-04-25T07:28:53.446Z,100867.34
2023-04-25T07:31:19.881Z,100878.84
2023-04-25T07:33:46.857Z,100865.81
2023-04-25T07:36:13.567Z,100878.47
2023-04-25T07:38:40.559Z,100880.88
2023-04-25T07:41:07.072Z,100884.91
2023-04-25T07:43:33.872Z,100891.66
2023-04-25T07:46:00.405Z,100887.34
2023-04-25T07:48:26.985Z,100884.16
2023-04-25T07:50:53.502Z,100892.88
2023-04-25T07:53:19.993Z,100895.28
2023-04-25T07:55:46.424Z,100900.03
2023-04-25T07:58:13.152Z,100905.56
2023-04-25T08:00:39.670Z,100902.78
2023-04-25T08:03:07.655Z,100902.84
2023-04-25T08:05:34.811Z,100904.44
2023-04-25T08:08:01.928Z,100906.34
2023-04-25T08:10:28.432Z,100916.28
2023-04-25T08:12:54.924Z,100915.09
2023-04-25T08:15:21.383Z,100923.03
2023-04-25T08:17:47.917Z,100938.03
2023-04-25T08:20:14.493Z,100927.38
2023-04-25T08:22:41.182Z,100936.88
2023-04-25T08:25:08.218Z,100935.69
2023-04-25T08:27:34.707Z,100939.66
2023-04-25T08:30:01.360Z,100936.50
2023-04-25T08:32:29.609Z,100946.81
2023-04-25T08:34:57.386Z,100941.66
2023-04-25T08:37:23.841Z,100943.22
2023-04-25T08:39:53.196Z,100944.41
2023-04-25T08:42:22.564Z,100951.94
2023-04-25T08:44:49.868Z,100957.06
2023-04-25T08:47:16.938Z,100964.59
2023-04-25T08:49:47.021Z,100966.16
2023-04-25T08:52:14.796Z,100967.38
2023-04-25T08:54:49.978Z,100962.22
2023-04-25T08:57:16.490Z,100969.31
2023-04-25T08:59:46.742Z,100974.44
2023-04-25T09:02:18.846Z,100976.78
2023-04-25T09:04:45.879Z,100980.72
2023-04-25T09:07:12.847Z,100988.22
2023-04-25T09:09:40.330Z,100983.06
2023-04-25T09:12:07.146Z,100981.91
2023-04-25T09:14:33.689Z,101002.09
2023-04-25T09:17:02.777Z,100992.59
2023-04-25T09:19:40.922Z,100998.16
2023-04-25T09:22:08.942Z,101001.31
2023-04-25T09:24:51.000Z,101001.28
2023-04-25T09:27:27.755Z,101006.81
2023-04-25T09:30:01.073Z,101004.06
2023-04-25T09:32:27.762Z,101002.88
2023-04-25T09:34:58.354Z,101014.69
2023-04-25T09:37:26.763Z,101006.75
2023-04-25T09:40:03.792Z,101007.88
2023-04-25T09:42:32.413Z,101009.88
2023-04-25T09:44:59.998Z,101009.81
2023-04-25T09:47:27.800Z,101013.81
2023-04-25T09:49:56.020Z,101020.09
2023-04-25T09:52:25.854Z,101017.66
2023-04-25T09:54:53.442Z,101030.69
2023-04-25T09:57:22.099Z,101020.59
2023-04-25T09:59:53.981Z,101029.63
2023-04-25T10:02:22.509Z,101022.72
2023-04-25T10:04:52.370Z,101031.44
2023-04-25T10:07:19.848Z,101028.25
2023-04-25T10:09:50.728Z,101031.53
2023-04-25T10:12:17.704Z,101034.78
2023-04-25T10:14:44.276Z,101034.09
2023-04-25T10:17:15.132Z,101043.38
2023-04-25T10:19:41.721Z,101046.22
2023-04-25T10:22:13.998Z,101042.38
2023-04-25T10:24:41.439Z,101050.34
2023-04-25T10:27:08.530Z,101050.38
2023-04-25T10:29:36.389Z,101056.34
2023-04-25T10:32:03.480Z,101058.75
2023-04-25T10:34:44.603Z,101068.69
2023-04-25T10:37:12.208Z,101073.06
2023-04-25T10:39:42.585Z,101083.00
2023-04-25T10:42:09.423Z,101082.59
2023-04-25T10:44:39.155Z,101093.69
2023-04-25T10:47:08.491Z,101090.09
2023-04-25T10:49:42.170Z,101088.47
2023-04-25T10:52:16.315Z,101095.56
2023-04-25T10:54:47.078Z,101112.13
2023-04-25T10:57:40.765Z,101113.16
2023-04-25T11:00:13.754Z,101108.69
2023-04-25T11:02:53.412Z,101107.06
2023-04-25T11:05:55.186Z,101101.97
2023-04-25T11:08:51.364Z,101090.53
2023-04-25T11:11:19.885Z,101087.44
2023-04-25T11:13:50.800Z,101095.66
2023-04-25T11:16:26.904Z,101088.56
2023-04-25T11:18:54.471Z,101093.63
2023-04-25T11:21:21.057Z,101095.63
2023-04-25T11:23:47.581Z,101096.72
2023-04-25T11:26:14.961Z,101089.81
2023-04-25T11:28:41.530Z,101085.97
2023-04-25T11:31:07.988Z,101092.00
2023-04-25T11:33:34.456Z,101078.16
2023-04-25T11:36:01.056Z,101097.97
2023-04-25T11:38:29.285Z,101098.06
2023-04-25T11:40:56.614Z,101094.44
2023-04-25T11:43:23.731Z,101096.31
2023-04-25T11:45:51.741Z,101094.22
2023-04-25T11:48:22.357Z,101096.03
2023-04-25T11:50:54.547Z,101093.41
2023-04-25T11:53:21.405Z,101083.44
2023-04-25T11:55:48.055Z,101085.28
2023-04-25T11:58:14.807Z,101092.25
2023-04-25T12:00:50.038Z,101085.72
2023-04-25T12:03:19.587Z,101077.03
2023-04-25T12:05:47.390Z,101072.84
2023-04-25T12:08:15.744Z,101088.91
2023-04-25T12:10:45.893Z,101087.75
2023-04-25T12:13:26.384Z,101094.50
2023-04-25T12:15:55.532Z,101093.47
2023-04-25T12:18:25.002Z,101091.06
2023-04-25T12:20:53.155Z,101094.28
2023-04-25T12:23:27.302Z,101098.69
2023-04-25T12:25:53.927Z,101107.44
2023-04-25T12:28:25.440Z,101103.94
2023-04-25T12:31:05.774Z,101107.78
2023-04-25T12:33:34.811Z,101108.63
2023-04-25T12:36:09.299Z,101108.34
2023-04-25T12:38:40.725Z,101107.28
2023-04-25T12:41:07.784Z,101103.34
2023-04-25T12:43:34.705Z,101115.72
2023-04-25T12:46:02.175Z,101115.38
2023-04-25T12:48:28.738Z,101117.44
2023-04-25T12:50:55.182Z,101115.56
2023-04-25T12:53:23.680Z,101120.31
2023-04-25T12:55:50.509Z,101128.53
2023-04-25T12:58:18.761Z,101124.66
2023-04-25T13:00:46.575Z,101128.44
2023-04-25T13:03:13.569Z,101128.00
2023-04-25T13:05:40.872Z,101125.72
2023-04-25T13:08:07.506Z,101119.31
2023-04-25T13:10:34.970Z,101120.81
2023-04-25T13:13:02.210Z,101119.97
2023-04-25T13:15:29.141Z,101127.66
2023-04-25T13:17:56.350Z,101122.19
2023-04-25T13:20:23.452Z,101128.09
2023-04-25T13:22:50.012Z,101130.22
2023-04-25T13:25:17.322Z,101132.69
2023-04-25T13:27:45.218Z,101127.88
2023-04-25T13:30:12.450Z,101134.91
2023-04-25T13:32:39.543Z,101132.09
2023-04-25T13:35:11.234Z,101125.94
2023-04-25T13:37:38.389Z,101129.50
2023-04-25T13:40:11.109Z,101124.06
2023-04-25T13:42:38.880Z,101129.19
2023-04-25T13:45:05.906Z,101130.44
2023-04-25T13:47:32.397Z,101120.41
2023-04-25T13:49:58.984Z,101130.38
2023-04-25T13:52:25.458Z,101132.44
2023-04-25T13:54:52.188Z,101126.16
2023-04-25T13:57:18.918Z,101130.94
2023-04-25T13:59:45.646Z,101119.97
2023-04-25T14:02:12.120Z,101115.66
2023-04-25T14:04:38.685Z,101125.53
2023-04-25T14:07:05.909Z,101116.34
2023-04-25T14:09:32.716Z,101122.19
2023-04-25T14:11:59.329Z,101116.56
2023-04-25T14:14:25.968Z,101124.03
2023-04-25T14:16:54.771Z,101109.13
2023-04-25T14:19:22.384Z,101104.47
2023-04-25T14:21:49.059Z,101113.72
2023-04-25T14:24:16.797Z,101108.13
2023-04-25T14:26:44.271Z,101113.16
2023-04-25T14:29:12.728Z,101106.97
2023-04-25T14:31:41.166Z,101104.66
2023-04-25T14:34:08.215Z,101110.50
2023-04-25T14:36:35.040Z,101110.50
2023-04-25T14:39:02.023Z,101118.00
2023-04-25T14:41:28.540Z,101120.31
2023-04-25T14:43:55.544Z,101127.28
2023-04-25T14:46:23.136Z,101134.91
2023-04-25T14:48:50.072Z,101123.41
2023-04-25T14:51:16.752Z,101137.66
2023-04-25T14:53:43.219Z,101138.47
2023-04-25T14:56:09.942Z,101137.81
2023-04-25T14:58:36.444Z,101143.88
2023-04-25T15:01:03.058Z,101142.44
2023-04-25T15:03:30.000Z,101141.06
2023-04-25T15:05:56.899Z,101149.91
2023-04-25T15:08:23.452Z,101139.75
2023-04-25T15:10:50.302Z,101142.03
2023-04-25T15:13:17.013Z,101137.84
2023-04-25T15:15:43.462Z,101155.06
2023-04-25T15:18:09.960Z,101146.03
2023-04-25T15:20:36.635Z,101144.00
2023-04-25T15:23:04.475Z,101145.72
2023-04-25T15:25:31.078Z,101147.03
2023-04-25T15:27:57.578Z,101147.34
2023-04-25T15:30:24.403Z,101151.03
2023-04-25T15:32:51.095Z,101148.72
2023-04-25T15:35:17.652Z,101152.91
2023-04-25T15:37:44.291Z,101149.88
2023-04-25T15:40:17.523Z,101149.38
2023-04-25T15:42:48.687Z,101157.72
2023-04-25T15:45:17.748Z,101155.97
2023-04-25T15:47:45.052Z,101155.63
2023-04-25T15:50:12.222Z,101158.88
2023-04-25T15:52:39.338Z,101166.94
2023-04-25T15:55:06.414Z,101167.00
2023-04-25T15:57:34.270Z,101167.06
2023-04-25T16:00:01.683Z,101184.00
2023-04-25T16:02:30.605Z,101168.19
2023-04-25T16:04:57.890Z,101161.88
2023-04-25T16:07:24.454Z,101168.69
2023-04-25T16:09:50.894Z,101165.22
2023-04-25T16:12:17.400Z,101173.66
2023-04-25T16:14:43.836Z,101172.47
2023-04-25T16:17:10.318Z,101168.81
2023-04-25T16:19:37.611Z,101172.38
2023-04-25T16:22:04.167Z,101176.75
2023-04-25T16:24:30.678Z,101173.94
2023-04-25T16:26:57.560Z,101168.34
2023-04-25T16:29:24.071Z,101166.72
2023-04-25T16:31:50.664Z,101169.47
2023-04-25T16:34:17.236Z,101174.22
2023-04-25T16:36:43.690Z,101165.88
2023-04-25T16:39:10.144Z,101169.41
2023-04-25T16:41:36.954Z,101169.16
2023-04-25T16:44:03.425Z,101172.31
2023-04-25T16:46:29.922Z,101170.78
2023-04-25T16:48:56.466Z,101176.03
2023-04-25T16:51:22.973Z,101175.94
2023-04-25T16:53:49.479Z,101175.59
2023-04-25T16:56:15.911Z,101170.03
2023-04-25T16:58:42.448Z,101168.78
2023-04-25T17:01:09.134Z,101168.06
2023-04-25T17:03:35.703Z,101173.66
2023-04-25T17:06:03.152Z,101176.09
2023-04-25T17:08:29.639Z,101182.81
2023-04-25T17:10:57.300Z,101190.34
2023-04-25T17:13:30.718Z,101185.69
2023-04-25T17:15:58.129Z,101196.03
2023-04-25T17:18:24.804Z,101181.78
2023-04-25T17:20:51.555Z,101207.59
2023-04-25T17:23:19.069Z,101212.03
2023-04-25T17:25:45.590Z,101207.28
2023-04-25T17:28:13.024Z,101212.84
2023-04-25T17:30:39.977Z,101215.66
2023-04-25T17:33:09.439Z,101217.63
2023-04-25T17:35:36.715Z,101214.47
2023-04-25T17:38:04.211Z,101221.22
2023-04-25T17:40:31.345Z,101223.63
2023-04-25T17:42:57.880Z,101227.22
2023-04-25T17:45:24.310Z,101224.84
2023-04-25T17:47:50.803Z,101221.66
2023-04-25T17:50:17.427Z,101226.81
2023-04-25T17:52:45.114Z,101232.75
2023-04-25T17:55:11.635Z,101229.19
2023-04-25T17:57:38.132Z,101240.69
2023-04-25T18:00:07.810Z,101239.47
2023-04-25T18:02:36.385Z,101241.03
2023-04-25T18:05:09.470Z,101246.19
2023-04-25T18:07:36.931Z,101238.28
2023-04-25T18:10:07.488Z,101242.22
2023-04-25T18:12:34.823Z,101240.22
2023-04-25T18:15:01.874Z,101248.13
2023-04-25T18:17:28.450Z,101251.63
2023-04-25T18:19:55.476Z,101266.34
2023-04-25T18:22:22.274Z,101257.63
2023-04-25T18:24:50.019Z,101263.09
2023-04-25T18:27:16.633Z,101269.84
2023-04-25T18:29:45.229Z,101279.28
2023-04-25T18:32:12.040Z,101281.22
2023-04-25T18:34:41.413Z,101288.34
2023-04-25T18:37:07.922Z,101288.34
2023-04-25T18:39:34.356Z,101285.50
2023-04-25T18:42:06.472Z,101289.81
2023-04-25T18:44:36.568Z,101295.75
2023-04-25T18:47:03.128Z,101296.47
2023-04-25T18:49:29.560Z,101294.78
2023-04-25T18:51:57.379Z,101302.97
2023-04-25T18:54:23.888Z,101306.56
2023-04-25T18:56:50.414Z,101309.31
2023-04-25T18:59:18.006Z,101312.47
2023-04-25T19:01:44.677Z,101326.22
2023-04-25T19:04:11.532Z,101325.81
2023-04-25T19:06:38.196Z,101328.09
2023-04-25T19:09:04.681Z,101329.72
2023-04-25T19:11:31.129Z,101336.41
2023-04-25T19:13:57.714Z,101341.50
2023-04-25T19:16:26.152Z,101343.44
2023-04-25T19:18:55.285Z,101352.13
2023-04-25T19:21:22.540Z,101343.75
2023-04-25T19:23:49.027Z,101344.19
2023-04-25T19:26:15.528Z,101343.78
2023-04-25T19:28:44.803Z,101347.25
2023-04-25T19:31:12.713Z,101356.69
2023-04-25T19:33:39.212Z,101362.53
2023-04-25T19:36:05.816Z,101361.66
2023-04-25T19:38:32.330Z,101357.97
2023-04-25T19:40:58.780Z,101368.56
2023-04-25T19:43:25.191Z,101377.59
2023-04-25T19:45:51.762Z,101371.22
2023-04-25T19:48:18.254Z,101374.34
2023-04-25T19:50:44.746Z,101374.28
2023-04-25T19:53:11.238Z,101372.56
2023-04-25T19:55:37.689Z,101374.44
2023-04-25T19:58:04.338Z,101365.59
2023-04-25T20:00:30.931Z,101365.22
2023-04-25T20:02:57.539Z,101366.44
2023-04-25T20:05:24.107Z,101375.84
2023-04-25T20:07:50.569Z,101373.69
2023-04-25T20:10:17.391Z,101371.66
2023-04-25T20:12:44.659Z,101374.66
2023-04-25T20:15:11.725Z,101374.09
2023-04-25T20:17:42.495Z,101376.31
2023-04-25T20:20:11.271Z,101379.41
2023-04-25T20:22:40.153Z,101385.63
2023-04-25T20:25:08.619Z,101379.47
2023-04-25T20:27:37.883Z,101383.03
2023-04-25T20:30:07.983Z,101380.97
2023-04-25T20:32:35.967Z,101374.09
2023-04-25T20:35:03.935Z,101378.28
2023-04-25T20:37:34.605Z,101396.00
2023-04-25T20:40:03.826Z,101391.94
2023-04-25T20:42:31.084Z,101390.63
2023-04-25T20:44:57.639Z,101393.25
2023-04-25T20:47:24.151Z,101390.69
2023-04-25T20:49:50.646Z,101389.03
2023-04-25T20:52:17.206Z,101391.16
2023-04-25T20:54:44.943Z,101392.69
2023-04-25T20:57:12.165Z,101390.88
2023-04-25T20:59:38.640Z,101376.59
2023-04-25T21:02:05.201Z,101381.16
2023-04-25T21:04:32.014Z,101393.41
2023-04-25T21:07:00.125Z,101388.91
2023-04-25T21:09:26.631Z,101397.03
2023-04-25T21:11:53.059Z,101396.44
2023-04-25T21:14:19.529Z,101385.97
2023-04-25T21:16:46.100Z,101394.19
2023-04-25T21:19:12.581Z,101392.03
2023-04-25T21:21:39.731Z,101397.38
2023-04-25T21:24:06.513Z,101391.47
2023-04-25T21:26:33.048Z,101397.94
2023-04-25T21:28:59.618Z,101398.13
2023-04-25T21:31:26.345Z,101413.50
2023-04-25T21:33:53.414Z,101406.50
2023-04-25T21:36:19.954Z,101405.31
2023-04-25T21:38:46.538Z,101406.50
2023-04-25T21:41:13.167Z,101415.34
2023-04-25T21:43:39.743Z,101413.25
2023-04-25T21:46:22.054Z,101417.94
2023-04-25T21:48:50.769Z,101410.69
2023-04-25T21:51:17.782Z,101412.56
2023-04-25T21:53:44.304Z,101414.84
2023-04-25T21:56:11.057Z,101414.84
2023-04-25T21:58:37.468Z,101413.06
2023-04-25T22:01:04.867Z,101414.47
2023-04-25T22:03:32.724Z,101422.72
2023-04-25T22:05:59.399Z,101411.63
2023-04-25T22:08:25.997Z,101417.94
2023-04-25T22:10:55.140Z,101427.50
2023-04-25T22:13:22.751Z,101435.09
2023-04-25T22:15:49.591Z,101427.53
2023-04-25T22:18:16.296Z,101437.16
2023-04-25T22:20:44.418Z,101435.03
2023-04-25T22:23:12.046Z,101438.81
2023-04-25T22:25:38.718Z,101436.22
2023-04-25T22:28:05.320Z,101445.47
2023-04-25T22:30:32.357Z,101451.41
2023-04-25T22:32:58.856Z,101440.88
2023-04-25T22:35:25.505Z,101449.03
2023-04-25T22:37:51.942Z,101446.63
2023-04-25T22:40:18.447Z,101452.34
2023-04-25T22:42:44.935Z,101445.50
2023-04-25T22:45:12.210Z,101454.28
2023-04-25T22:47:39.743Z,101455.09
2023-04-25T22:50:12.482Z,101456.94
2023-04-25T22:52:39.363Z,101463.81
2023-04-25T22:55:06.764Z,101455.03
2023-04-25T22:57:33.512Z,101465.91
2023-04-25T22:59:59.969Z,101473.00
2023-04-25T23:02:27.489Z,101471.84
2023-04-25T23:04:54.789Z,101473.00
2023-04-25T23:07:21.386Z,101473.78
2023-04-25T23:09:47.834Z,101468.19
2023-04-25T23:12:17.884Z,101471.88
2023-04-25T23:14:44.519Z,101479.75
2023-04-25T23:17:11.630Z,101478.41
2023-04-25T23:19:38.241Z,101474.16
2023-04-25T23:22:05.834Z,101475.53
2023-04-25T23:24:37.528Z,101480.44
2023-04-25T23:27:04.048Z,101478.16
2023-04-25T23:29:32.166Z,101487.66
2023-04-25T23:31:59.384Z,101482.97
2023-04-25T23:34:25.829Z,101479.97
2023-04-25T23:36:52.250Z,101481.47
2023-04-25T23:39:19.246Z,101477.59
2023-04-25T23:41:45.976Z,101494.88
2023-04-25T23:44:12.418Z,101485.25
2023-04-25T23:46:38.943Z,101481.59
2023-04-25T23:49:05.522Z,101483.44
2023-04-25T23:51:32.312Z,101485.22
2023-04-25T23:53:58.886Z,101487.41
2023-04-25T23:56:25.700Z,101486.63
2023-04-25T23:58:52.777Z,101489.38
